createdAt,value
2023-05-24T00:00:31.298Z,100447.59
2023-05-24T00:03:03.457Z,100453.25
2023-05-24T00:05:33.862Z,100455.28
2023-05-24T00:08:04.240Z,100451.63
2023-05-24T00:10:36.101Z,100449.63
2023-05-24T00:13:08.976Z,100448.00
2023-05-24T00:15:44.958Z,100443.97
2023-05-24T00:18:21.582Z,100446.78
2023-05-24T00:20:58.354Z,100439.09
2023-05-24T00:23:30.746Z,100447.19
2023-05-24T00:26:07.405Z,100448.00
2023-05-24T00:28:38.786Z,100445.97
2023-05-24T00:31:11.359Z,100446.38
2023-05-24T00:33:41.803Z,100454.09
2023-05-24T00:36:12.140Z,100442.34
2023-05-24T00:38:42.302Z,100438.72
2023-05-24T00:41:12.908Z,100442.34
2023-05-24T00:43:43.740Z,100446.38
2023-05-24T00:46:23.842Z,100437.88
2023-05-24T00:48:54.951Z,100435.06
2023-05-24T00:51:26.884Z,100433.06
2023-05-24T00:53:58.491Z,100434.25
2023-05-24T00:56:29.856Z,100434.25
2023-05-24T00:59:00.665Z,100435.06
2023-05-24T01:01:33.322Z,100428.59
2023-05-24T01:04:04.484Z,100427.78
2023-05-24T01:06:46.615Z,100417.28
2023-05-24T01:09:31.819Z,100424.16
2023-05-24T01:12:19.740Z,100426.97
2023-05-24T01:15:07.347Z,100431.03
2023-05-24T01:17:52.552Z,100425.75
2023-05-24T01:20:26.690Z,100418.47
2023-05-24T01:23:21.559Z,100419.69
2023-05-24T01:26:21.557Z,100420.91
2023-05-24T01:28:56.166Z,100416.88
2023-05-24T01:31:27.854Z,100426.56
2023-05-24T01:33:58.458Z,100435.44
2023-05-24T01:36:28.660Z,100430.59
2023-05-24T01:38:59.192Z,100429.78
2023-05-24T01:41:42.675Z,100429.38
2023-05-24T01:44:29.787Z,100424.94
2023-05-24T01:47:13.345Z,100428.97
2023-05-24T01:49:52.901Z,100425.72
2023-05-24T01:52:26.397Z,100424.91
2023-05-24T01:54:59.493Z,100429.75
2023-05-24T01:57:31.610Z,100432.59
2023-05-24T02:00:07.038Z,100428.56
2023-05-24T02:02:37.958Z,100422.47
2023-05-24T02:05:09.253Z,100433.00
2023-05-24T02:07:39.669Z,100432.19
2023-05-24T02:10:11.798Z,100438.66
2023-05-24T02:12:42.336Z,100437.84
2023-05-24T02:15:16.345Z,100436.22
2023-05-24T02:17:46.787Z,100443.91
2023-05-24T02:20:17.746Z,100438.25
2023-05-24T02:22:48.398Z,100453.59
2023-05-24T02:25:19.222Z,100457.63
2023-05-24T02:27:49.875Z,100454.00
2023-05-24T02:30:22.284Z,100456.44
2023-05-24T02:32:52.705Z,100458.84
2023-05-24T02:35:23.660Z,100452.38
2023-05-24T02:37:53.856Z,100455.22
2023-05-24T02:40:24.376Z,100452.75
2023-05-24T02:42:53.883Z,100464.91
2023-05-24T02:45:26.466Z,100465.72
2023-05-24T02:47:56.808Z,100457.63
2023-05-24T02:50:27.228Z,100470.94
2023-05-24T02:52:57.557Z,100465.69
2023-05-24T02:55:29.722Z,100464.06
2023-05-24T02:58:00.102Z,100474.19
2023-05-24T03:00:31.874Z,100469.34
2023-05-24T03:03:03.685Z,100464.06
2023-05-24T03:05:34.056Z,100466.09
2023-05-24T03:08:04.661Z,100464.91
2023-05-24T03:10:35.072Z,100466.91
2023-05-24T03:13:05.329Z,100466.09
2023-05-24T03:15:37.668Z,100468.94
2023-05-24T03:18:07.870Z,100469.31
2023-05-24T03:20:38.045Z,100472.97
2023-05-24T03:23:10.075Z,100472.16
2023-05-24T03:25:40.220Z,100472.16
2023-05-24T03:28:11.099Z,100483.09
2023-05-24T03:30:44.201Z,100483.88
2023-05-24T03:33:17.043Z,100484.72
2023-05-24T03:35:47.832Z,100480.69
2023-05-24T03:38:18.533Z,100486.34
2023-05-24T03:40:48.474Z,100484.72
2023-05-24T03:43:19.381Z,100485.13
2023-05-24T03:45:50.998Z,100493.22
2023-05-24T03:48:21.310Z,100482.31
2023-05-24T03:50:51.719Z,100497.69
2023-05-24T03:53:23.330Z,100503.75
2023-05-24T03:55:53.326Z,100500.09
2023-05-24T03:58:23.309Z,100483.53
2023-05-24T04:00:55.967Z,100494.88
2023-05-24T04:03:26.530Z,100500.16
2023-05-24T04:05:57.413Z,100503.00
2023-05-24T04:08:27.926Z,100497.75
2023-05-24T04:10:57.915Z,100489.69
2023-05-24T04:13:28.339Z,100494.94
2023-05-24T04:16:15.750Z,100491.69
2023-05-24T04:18:46.333Z,100490.47
2023-05-24T04:21:17.241Z,100490.47
2023-05-24T04:23:47.976Z,100495.34
2023-05-24T04:26:18.289Z,100488.06
2023-05-24T04:28:48.971Z,100486.06
2023-05-24T04:31:21.620Z,100487.69
2023-05-24T04:33:54.454Z,100488.09
2023-05-24T04:36:29.246Z,100485.31
2023-05-24T04:39:05.284Z,100488.16
2023-05-24T04:41:36.350Z,100481.66
2023-05-24T04:44:07.978Z,100483.31
2023-05-24T04:46:40.528Z,100479.66
2023-05-24T04:49:11.416Z,100471.97
2023-05-24T04:51:41.758Z,100479.66
2023-05-24T04:54:11.883Z,100478.84
2023-05-24T04:56:42.369Z,100486.97
2023-05-24T04:59:12.872Z,100476.41
2023-05-24T05:01:45.284Z,100480.88
2023-05-24T05:04:15.115Z,100474.41
2023-05-24T05:06:47.059Z,100482.91
2023-05-24T05:09:17.706Z,100486.16
2023-05-24T05:11:49.449Z,100476.44
2023-05-24T05:14:19.692Z,100486.19
2023-05-24T05:16:51.761Z,100481.72
2023-05-24T05:19:29.209Z,100488.56
2023-05-24T05:21:59.760Z,100494.66
2023-05-24T05:24:33.557Z,100480.06
2023-05-24T05:27:07.571Z,100492.19
2023-05-24T05:29:37.769Z,100476.41
2023-05-24T05:32:11.774Z,100481.25
2023-05-24T05:34:41.805Z,100479.63
2023-05-24T05:37:12.322Z,100483.69
2023-05-24T05:39:42.733Z,100481.66
2023-05-24T05:42:18.812Z,100477.16
2023-05-24T05:44:49.164Z,100475.94
2023-05-24T05:47:22.452Z,100471.84
2023-05-24T05:49:52.860Z,100482.81
2023-05-24T05:52:23.116Z,100476.69
2023-05-24T05:54:53.738Z,100480.72
2023-05-24T05:57:25.014Z,100475.44
2023-05-24T05:59:54.950Z,100474.19
2023-05-24T06:02:27.838Z,100479.06
2023-05-24T06:04:58.904Z,100480.66
2023-05-24T06:07:29.357Z,100471.69
2023-05-24T06:09:59.414Z,100472.06
2023-05-24T06:12:31.657Z,100472.47
2023-05-24T06:15:01.786Z,100470.78
2023-05-24T06:17:35.036Z,100473.19
2023-05-24T06:20:12.387Z,100473.19
2023-05-24T06:22:43.331Z,100475.59
2023-05-24T06:25:15.095Z,100475.97
2023-05-24T06:27:45.509Z,100480.41
2023-05-24T06:30:16.949Z,100468.59
2023-05-24T06:32:49.687Z,100477.06
2023-05-24T06:35:22.419Z,100475.81
2023-05-24T06:37:53.087Z,100476.19
2023-05-24T06:40:23.404Z,100470.06
2023-05-24T06:42:53.753Z,100460.66
2023-05-24T06:45:24.243Z,100463.03
2023-05-24T06:47:56.297Z,100464.63
2023-05-24T06:50:26.931Z,100458.50
2023-05-24T06:52:57.489Z,100463.72
2023-05-24T06:55:27.827Z,100461.28
2023-05-24T06:57:58.164Z,100460.81
2023-05-24T07:00:28.628Z,100466.03
2023-05-24T07:03:01.681Z,100459.91
2023-05-24T07:05:32.596Z,100466.78
2023-05-24T07:08:03.123Z,100463.91
2023-05-24T07:10:33.579Z,100469.13
2023-05-24T07:13:04.416Z,100472.34
2023-05-24T07:15:34.767Z,100479.63
2023-05-24T07:18:07.719Z,100471.03
2023-05-24T07:20:38.325Z,100477.91
2023-05-24T07:23:09.127Z,100473.34
2023-05-24T07:25:39.332Z,100479.84
2023-05-24T07:28:09.193Z,100487.50
2023-05-24T07:30:39.801Z,100478.09
2023-05-24T07:33:12.015Z,100476.03
2023-05-24T07:35:42.236Z,100475.19
2023-05-24T07:38:13.034Z,100470.69
2023-05-24T07:40:43.661Z,100474.69
2023-05-24T07:43:14.405Z,100476.28
2023-05-24T07:45:44.906Z,100477.03
2023-05-24T07:48:17.437Z,100473.31
2023-05-24T07:50:49.309Z,100472.91
2023-05-24T07:53:19.976Z,100473.66
2023-05-24T07:55:51.284Z,100464.28
2023-05-24T07:58:21.631Z,100472.75
2023-05-24T08:00:52.100Z,100474.00
2023-05-24T08:03:25.689Z,100473.56
2023-05-24T08:05:56.359Z,100469.88
2023-05-24T08:08:26.327Z,100473.06
2023-05-24T08:10:56.340Z,100477.13
2023-05-24T08:13:27.003Z,100476.25
2023-05-24T08:15:58.879Z,100469.72
2023-05-24T08:18:45.563Z,100471.31
2023-05-24T08:21:16.860Z,100472.94
2023-05-24T08:23:47.939Z,100474.91
2023-05-24T08:26:19.692Z,100471.22
2023-05-24T08:28:49.925Z,100475.25
2023-05-24T08:31:20.297Z,100467.06
2023-05-24T08:33:53.428Z,100463.81
2023-05-24T08:36:23.798Z,100461.31
2023-05-24T08:38:54.278Z,100468.22
2023-05-24T08:41:24.722Z,100472.25
2023-05-24T08:43:56.234Z,100466.94
2023-05-24T08:46:27.420Z,100465.69
2023-05-24T08:49:03.884Z,100467.25
2023-05-24T08:51:34.586Z,100471.69
2023-05-24T08:54:07.487Z,100474.94
2023-05-24T08:56:39.679Z,100469.19
2023-05-24T08:59:11.868Z,100474.88
2023-05-24T09:01:44.484Z,100473.19
2023-05-24T09:04:17.191Z,100465.03
2023-05-24T09:06:48.591Z,100471.50
2023-05-24T09:09:24.034Z,100473.13
2023-05-24T09:11:58.846Z,100466.19
2023-05-24T09:14:30.134Z,100461.28
2023-05-24T09:17:01.619Z,100462.53
2023-05-24T09:19:33.479Z,100454.41
2023-05-24T09:22:04.075Z,100455.63
2023-05-24T09:24:51.546Z,100453.63
2023-05-24T09:27:24.719Z,100461.78
2023-05-24T09:29:55.671Z,100460.97
2023-05-24T09:32:26.501Z,100460.56
2023-05-24T09:35:01.729Z,100452.38
2023-05-24T09:37:34.043Z,100453.97
2023-05-24T09:40:07.361Z,100447.84
2023-05-24T09:42:37.977Z,100450.25
2023-05-24T09:45:11.065Z,100446.97
2023-05-24T09:47:43.064Z,100451.88
2023-05-24T09:50:19.773Z,100449.03
2023-05-24T09:52:50.665Z,100456.78
2023-05-24T09:55:22.935Z,100459.63
2023-05-24T09:58:05.414Z,100452.66
2023-05-24T10:00:40.325Z,100459.63
2023-05-24T10:03:18.209Z,100466.91
2023-05-24T10:05:52.214Z,100464.50
2023-05-24T10:08:37.051Z,100461.66
2023-05-24T10:11:09.255Z,100473.06
2023-05-24T10:13:40.389Z,100467.38
2023-05-24T10:16:11.951Z,100468.19
2023-05-24T10:18:42.399Z,100466.56
2023-05-24T10:21:15.829Z,100477.97
2023-05-24T10:23:53.186Z,100467.81
2023-05-24T10:26:27.846Z,100466.97
2023-05-24T10:29:07.286Z,100469.03
2023-05-24T10:31:43.865Z,100460.09
2023-05-24T10:34:15.006Z,100462.16
2023-05-24T10:36:48.703Z,100467.03
2023-05-24T10:39:22.547Z,100463.81
2023-05-24T10:41:53.194Z,100458.56
2023-05-24T10:44:24.665Z,100465.50
2023-05-24T10:47:17.823Z,100465.06
2023-05-24T10:49:55.699Z,100463.47
2023-05-24T10:52:37.839Z,100458.56
2023-05-24T10:55:11.461Z,100459.78
2023-05-24T10:57:43.754Z,100451.25
2023-05-24T11:00:36.324Z,100467.09
2023-05-24T11:03:11.325Z,100462.63
2023-05-24T11:05:55.557Z,100469.16
2023-05-24T11:08:38.500Z,100454.09
2023-05-24T11:13:51.541Z,100441.44
2023-05-24T11:16:39.547Z,100440.66
2023-05-24T11:19:24.446Z,100443.50
2023-05-24T11:21:59.368Z,100447.94
2023-05-24T11:24:32.906Z,100440.22
2023-05-24T11:27:04.870Z,100434.50
2023-05-24T11:29:36.846Z,100423.56
2023-05-24T11:32:10.270Z,100429.25
2023-05-24T11:34:45.639Z,100425.56
2023-05-24T11:37:17.999Z,100421.94
2023-05-24T11:39:54.926Z,100425.19
2023-05-24T11:42:27.084Z,100427.25
2023-05-24T11:44:58.057Z,100422.38
2023-05-24T11:47:28.801Z,100419.16
2023-05-24T11:50:00.155Z,100429.75
2023-05-24T11:52:33.200Z,100420.03
2023-05-24T11:55:08.984Z,100417.97
2023-05-24T11:57:46.021Z,100415.94
2023-05-24T12:00:27.816Z,100409.41
2023-05-24T12:03:05.560Z,100405.78
2023-05-24T12:05:37.289Z,100408.63
2023-05-24T12:08:12.422Z,100407.41
2023-05-24T12:10:46.213Z,100405.78
2023-05-24T12:13:25.818Z,100407.41
2023-05-24T12:15:58.620Z,100412.28
2023-05-24T12:18:33.802Z,100411.47
2023-05-24T12:21:04.031Z,100402.09
2023-05-24T12:23:40.364Z,100393.13
2023-05-24T12:26:18.005Z,100394.72
2023-05-24T12:28:49.852Z,100398.84
2023-05-24T12:31:21.075Z,100394.72
2023-05-24T12:33:54.200Z,100383.31
2023-05-24T12:36:25.523Z,100378.44
2023-05-24T12:39:01.037Z,100377.63
2023-05-24T12:41:36.995Z,100373.97
2023-05-24T12:44:08.507Z,100376.03
2023-05-24T12:46:39.599Z,100375.59
2023-05-24T12:49:10.046Z,100369.91
2023-05-24T12:51:40.178Z,100362.13
2023-05-24T12:54:10.949Z,100359.28
2023-05-24T12:56:43.506Z,100360.50
2023-05-24T12:59:14.912Z,100355.25
2023-05-24T13:01:52.297Z,100363.44
2023-05-24T13:04:27.934Z,100365.94
2023-05-24T13:07:00.604Z,100359.84
2023-05-24T13:09:30.809Z,100361.88
2023-05-24T13:12:03.477Z,100353.78
2023-05-24T13:14:34.758Z,100356.63
2023-05-24T13:17:07.448Z,100353.41
2023-05-24T13:19:38.195Z,100356.25
2023-05-24T13:22:11.505Z,100350.53
2023-05-24T13:24:45.940Z,100344.47
2023-05-24T13:27:52.170Z,100355.06
2023-05-24T13:30:52.670Z,100345.75
2023-05-24T13:33:38.119Z,100353.09
2023-05-24T13:37:15.847Z,100349.50
2023-05-24T13:39:52.659Z,100352.38
2023-05-24T13:42:28.475Z,100342.25
2023-05-24T13:45:01.773Z,100335.34
2023-05-24T13:47:40.412Z,100335.34
2023-05-24T13:50:12.767Z,100334.56
2023-05-24T13:52:46.195Z,100335.78
2023-05-24T13:55:16.096Z,100330.53
2023-05-24T13:57:52.505Z,100324.00
2023-05-24T14:00:24.451Z,100320.00
2023-05-24T14:02:58.578Z,100322.84
2023-05-24T14:05:31.174Z,100329.41
2023-05-24T14:08:07.238Z,100333.13
2023-05-24T14:10:47.033Z,100329.06
2023-05-24T14:13:55.692Z,100328.72
2023-05-24T14:16:18.628Z,100323.84
2023-05-24T14:18:52.397Z,100325.53
2023-05-24T14:21:27.775Z,100324.69
2023-05-24T14:24:05.413Z,100322.28
2023-05-24T14:26:37.911Z,100322.69
2023-05-24T14:29:11.776Z,100321.91
2023-05-24T14:31:44.306Z,100329.28
2023-05-24T14:34:17.692Z,100323.59
2023-05-24T14:36:49.189Z,100331.75
2023-05-24T14:39:19.627Z,100322.38
2023-05-24T14:42:03.861Z,100325.22
2023-05-24T14:44:37.672Z,100331.38
2023-05-24T14:47:08.825Z,100331.81
2023-05-24T14:49:39.588Z,100328.13
2023-05-24T14:52:21.129Z,100329.38
2023-05-24T14:54:53.322Z,100323.31
2023-05-24T14:57:25.664Z,100322.09
2023-05-24T15:00:01.143Z,100333.88
2023-05-24T15:02:31.886Z,100326.56
2023-05-24T15:05:02.710Z,100332.72
2023-05-24T15:07:33.315Z,100324.16
2023-05-24T15:10:04.025Z,100320.94
2023-05-24T15:12:34.685Z,100323.00
2023-05-24T15:15:09.610Z,100336.41
2023-05-24T15:17:42.975Z,100332.78
2023-05-24T15:20:14.324Z,100328.75
2023-05-24T15:22:44.275Z,100340.53
2023-05-24T15:25:14.202Z,100342.59
2023-05-24T15:27:44.913Z,100343.84
2023-05-24T15:30:17.905Z,100349.97
2023-05-24T15:32:47.826Z,100349.16
2023-05-24T15:35:19.269Z,100352.84
2023-05-24T15:37:49.241Z,100362.59
2023-05-24T15:40:20.463Z,100357.78
2023-05-24T15:42:53.179Z,100361.03
2023-05-24T15:45:27.026Z,100364.75
2023-05-24T15:48:07.440Z,100359.47
2023-05-24T15:59:10.731Z,100362.09
2023-05-24T16:05:09.217Z,100372.72
2023-05-24T16:07:41.346Z,100377.22
2023-05-24T16:10:12.226Z,100378.88
2023-05-24T16:12:45.538Z,100384.63
2023-05-24T16:15:26.944Z,100383.84
2023-05-24T16:17:59.220Z,100390.38
2023-05-24T16:20:29.348Z,100397.31
2023-05-24T16:23:01.068Z,100395.72
2023-05-24T16:25:34.215Z,100397.78
2023-05-24T16:28:04.399Z,100395.38
2023-05-24T16:30:35.048Z,100390.91
2023-05-24T16:33:10.583Z,100399.84
2023-05-24T16:35:41.350Z,100400.28
2023-05-24T16:38:11.340Z,100395.03
2023-05-24T16:40:42.299Z,100392.56
2023-05-24T16:43:13.033Z,100403.16
2023-05-24T16:45:43.284Z,100396.28
2023-05-24T16:48:15.441Z,100395.88
2023-05-24T16:50:46.114Z,100404.81
2023-05-24T16:53:16.644Z,100406.47
2023-05-24T16:55:46.546Z,100401.19
2023-05-24T16:58:17.128Z,100415.03
2023-05-24T17:00:47.494Z,100411.44
2023-05-24T17:03:22.310Z,100422.03
2023-05-24T17:05:53.560Z,100414.75
2023-05-24T17:08:24.118Z,100427.34
2023-05-24T17:11:05.327Z,100423.31
2023-05-24T17:13:36.538Z,100423.34
2023-05-24T17:16:08.747Z,100427.00
2023-05-24T17:18:41.348Z,100425.81
2023-05-24T17:21:11.888Z,100422.56
2023-05-24T17:23:42.835Z,100425.41
2023-05-24T17:26:16.223Z,100421.38
2023-05-24T17:28:51.254Z,100424.66
2023-05-24T17:31:22.531Z,100427.09
2023-05-24T17:33:54.971Z,100426.28
2023-05-24T17:36:34.216Z,100423.47
2023-05-24T17:39:11.640Z,100424.28
2023-05-24T17:41:42.477Z,100429.63
2023-05-24T17:44:13.363Z,100436.91
2023-05-24T17:46:44.218Z,100434.06
2023-05-24T17:49:16.984Z,100441.41
2023-05-24T17:51:47.154Z,100442.19
2023-05-24T17:54:17.660Z,100441.44
2023-05-24T17:56:48.386Z,100457.28
2023-05-24T17:59:21.185Z,100454.44
2023-05-24T18:01:52.193Z,100454.88
2023-05-24T18:04:24.436Z,100451.63
2023-05-24T18:06:55.005Z,100457.75
2023-05-24T18:09:25.948Z,100461.81
2023-05-24T18:11:59.265Z,100460.63
2023-05-24T18:14:34.755Z,100467.94
2023-05-24T18:17:14.315Z,100466.72
2023-05-24T18:19:53.961Z,100468.75
2023-05-24T18:22:24.835Z,100468.38
2023-05-24T18:24:55.412Z,100467.19
2023-05-24T18:27:27.091Z,100470.41
2023-05-24T18:29:57.281Z,100468.41
2023-05-24T18:32:28.049Z,100475.31
2023-05-24T18:35:00.314Z,100480.16
2023-05-24T18:37:30.436Z,100477.75
2023-05-24T18:40:01.271Z,100476.13
2023-05-24T18:42:31.992Z,100484.25
2023-05-24T18:45:02.395Z,100488.34
2023-05-24T18:47:33.605Z,100483.50
2023-05-24T18:50:08.317Z,100484.69
2023-05-24T18:52:38.858Z,100485.13
2023-05-24T18:55:13.012Z,100488.34
2023-05-24T18:57:43.266Z,100493.63
2023-05-24T19:00:15.663Z,100500.56
2023-05-24T19:02:46.261Z,100495.28
2023-05-24T19:05:20.445Z,100490.38
2023-05-24T19:07:51.429Z,100492.84
2023-05-24T19:10:21.536Z,100492.44
2023-05-24T19:12:55.185Z,100496.09
2023-05-24T19:15:26.577Z,100494.91
2023-05-24T19:17:58.392Z,100491.66
2023-05-24T19:20:30.351Z,100494.09
2023-05-24T19:23:01.877Z,100496.94
2023-05-24T19:25:32.308Z,100484.78
2023-05-24T19:28:02.099Z,100483.97
2023-05-24T19:30:34.402Z,100489.63
2023-05-24T19:33:05.206Z,100498.16
2023-05-24T19:35:37.778Z,100495.31
2023-05-24T19:38:09.243Z,100496.56
2023-05-24T19:40:39.662Z,100502.25
2023-05-24T19:43:09.848Z,100504.25
2023-05-24T19:45:40.393Z,100498.56
2023-05-24T19:48:11.305Z,100519.66
2023-05-24T19:50:44.750Z,100513.19
2023-05-24T19:53:18.105Z,100512.38
2023-05-24T19:55:48.078Z,100513.19
2023-05-24T19:58:18.740Z,100508.72
2023-05-24T20:00:49.177Z,100512.78
2023-05-24T20:03:19.510Z,100516.84
2023-05-24T20:05:51.845Z,100514.00
2023-05-24T20:08:27.216Z,100515.22
2023-05-24T20:10:57.766Z,100516.44
2023-05-24T20:13:28.037Z,100519.28
2023-05-24T20:15:58.616Z,100520.50
2023-05-24T20:18:29.069Z,100521.72
2023-05-24T20:21:01.658Z,100525.78
2023-05-24T20:23:32.322Z,100516.44
2023-05-24T20:26:03.619Z,100520.50
2023-05-24T20:28:34.180Z,100519.72
2023-05-24T20:31:04.638Z,100526.59
2023-05-24T20:34:01.416Z,100523.75
2023-05-24T20:36:34.797Z,100518.50
2023-05-24T20:39:05.241Z,100521.72
2023-05-24T20:41:35.557Z,100524.56
2023-05-24T20:44:05.437Z,100521.34
2023-05-24T20:46:37.059Z,100529.84
2023-05-24T20:49:07.856Z,100533.09
2023-05-24T20:51:40.415Z,100525.38
2023-05-24T20:54:12.398Z,100524.59
2023-05-24T20:56:43.442Z,100521.34
2023-05-24T20:59:13.860Z,100523.38
2023-05-24T21:01:44.586Z,100518.09
2023-05-24T21:04:14.866Z,100520.13
2023-05-24T21:06:47.182Z,100519.34
2023-05-24T21:09:17.323Z,100521.34
2023-05-24T21:11:47.813Z,100501.91
2023-05-24T21:14:18.849Z,100505.56
2023-05-24T21:16:49.531Z,100505.97
2023-05-24T21:19:20.115Z,100506.75
2023-05-24T21:21:52.893Z,100521.38
2023-05-24T21:24:23.293Z,100514.06
2023-05-24T21:26:54.212Z,100516.13
2023-05-24T21:29:24.068Z,100508.81
2023-05-24T21:31:54.185Z,100499.47
2023-05-24T21:34:24.477Z,100508.41
2023-05-24T21:36:56.901Z,100512.03
2023-05-24T21:39:27.251Z,100511.25
2023-05-24T21:41:57.770Z,100506.00
2023-05-24T21:44:28.446Z,100508.84
2023-05-24T21:46:59.520Z,100504.38
2023-05-24T21:49:29.805Z,100507.22
2023-05-24T21:52:02.526Z,100509.19
2023-05-24T21:54:33.064Z,100501.91
2023-05-24T21:57:04.182Z,100506.78
2023-05-24T21:59:34.420Z,100505.94
2023-05-24T22:02:05.356Z,100504.34
2023-05-24T22:04:36.459Z,100504.75
2023-05-24T22:07:09.162Z,100518.13
2023-05-24T22:09:39.719Z,100512.84
2023-05-24T22:12:10.674Z,100511.63
2023-05-24T22:14:40.787Z,100510.00
2023-05-24T22:17:11.762Z,100514.88
2023-05-24T22:19:42.236Z,100523.41
2023-05-24T22:22:15.856Z,100525.41
2023-05-24T22:24:47.570Z,100519.34
2023-05-24T22:27:18.920Z,100524.63
2023-05-24T22:29:49.212Z,100522.56
2023-05-24T22:32:19.866Z,100519.38
2023-05-24T22:34:50.445Z,100527.03
2023-05-24T22:37:22.724Z,100528.25
2023-05-24T22:39:53.307Z,100526.63
2023-05-24T22:42:23.597Z,100526.63
2023-05-24T22:44:54.104Z,100530.69
2023-05-24T22:47:25.285Z,100529.91
2023-05-24T22:49:56.140Z,100513.69
2023-05-24T22:52:28.760Z,100517.34
2023-05-24T22:54:59.649Z,100522.59
2023-05-24T22:57:30.472Z,100524.25
2023-05-24T23:00:00.594Z,100526.25
2023-05-24T23:02:32.106Z,100521.00
2023-05-24T23:05:04.712Z,100531.13
2023-05-24T23:07:37.894Z,100531.13
2023-05-24T23:10:10.594Z,100530.28
2023-05-24T23:12:42.837Z,100542.47
2023-05-24T23:15:18.943Z,100536.38
2023-05-24T23:17:52.846Z,100535.97
2023-05-24T23:20:23.770Z,100527.03
2023-05-24T23:22:56.429Z,100527.84
2023-05-24T23:25:26.713Z,100532.28
2023-05-24T23:27:57.335Z,100532.28
2023-05-24T23:30:27.708Z,100529.88
2023-05-24T23:32:58.323Z,100529.06
2023-05-24T23:35:28.767Z,100529.44
2023-05-24T23:38:00.208Z,100526.22
2023-05-24T23:40:30.517Z,100526.22
2023-05-24T23:43:01.231Z,100527.84
2023-05-24T23:45:31.629Z,100529.84
2023-05-24T23:48:02.566Z,100535.50
2023-05-24T23:50:39.912Z,100535.13
2023-05-24T23:53:15.880Z,100540.38
2023-05-24T23:55:48.967Z,100543.22
2023-05-24T23:58:19.214Z,100551.72
